Time;durP1;ratioP1;P1;durP2;ratioP2;P2;SDS_P1;SDS_P2;PMS_P1;PMS_P2;Temp;Humidity;BMP_temperature;BMP_pressure;BME280_temperature;BME280_humidity;BME280_pressure;Samples;Min_cycle;Max_cycle;Signal;HPM_P1;HPM_P2
2022/10/01 00:01:58;;;;;;;34.67;26.08;;;;;;;9.31;100.00;99364.91;5091207;28;20043;-77
2022/10/01 00:04:25;;;;;;;31.13;24.80;;;;;;;9.37;100.00;99380.22;5091368;28;20464;-76
2022/10/01 00:06:50;;;;;;;32.85;25.27;;;;;;;9.30;100.00;99368.44;5091128;28;20047;-76
2022/10/01 00:09:15;;;;;;;37.55;27.48;;;;;;;9.31;100.00;99374.47;5091241;28;20336;-76
2022/10/01 00:11:41;;;;;;;37.35;27.98;;;;;;;9.24;100.00;99371.31;5090596;28;20031;-77
2022/10/01 00:14:07;;;;;;;34.70;27.70;;;;;;;9.25;100.00;99384.22;5091559;28;20107;-77
2022/10/01 00:16:32;;;;;;;45.97;30.83;;;;;;;9.26;100.00;99382.47;5091242;28;20062;-77
2022/10/01 00:18:59;;;;;;;34.13;26.80;;;;;;;9.15;100.00;99375.19;5090713;28;20157;-76
2022/10/01 00:21:27;;;;;;;41.58;29.73;;;;;;;9.21;100.00;99389.63;5090944;28;20035;-77
2022/10/01 00:23:59;;;;;;;32.10;26.35;;;;;;;9.10;100.00;99384.06;5091034;28;20062;-77
2022/10/01 00:26:27;;;;;;;37.45;26.30;;;;;;;9.11;100.00;99394.41;5091009;28;20059;-77
2022/10/01 00:28:55;;;;;;;33.13;26.77;;;;;;;9.03;100.00;99383.53;5090829;28;20020;-76
2022/10/01 00:31:20;;;;;;;36.50;26.65;;;;;;;8.84;100.00;99367.03;5090987;28;20059;-77
2022/10/01 00:33:46;;;;;;;44.22;32.60;;;;;;;8.96;100.00;99390.72;5090700;28;20048;-77
2022/10/01 00:36:12;;;;;;;36.08;28.67;;;;;;;8.85;100.00;99387.78;5090955;28;20028;-77
2022/10/01 00:38:39;;;;;;;37.80;29.77;;;;;;;8.85;100.00;99397.28;5091005;28;20045;-77
2022/10/01 00:41:05;;;;;;;37.15;28.48;;;;;;;8.74;100.00;99380.44;5091112;28;20040;-76
2022/10/01 00:43:34;;;;;;;36.28;28.10;;;;;;;8.77;100.00;99400.25;5090893;28;20020;-77
2022/10/01 00:46:04;;;;;;;38.70;28.48;;;;;;;8.71;100.00;99390.09;5090698;28;20336;-77
2022/10/01 00:48:34;;;;;;;40.25;30.98;;;;;;;8.66;100.00;99386.88;5090688;28;20161;-77
2022/10/01 00:50:59;;;;;;;40.80;29.50;;;;;;;8.61;100.00;99394.88;5090866;28;20128;-77
2022/10/01 00:53:26;;;;;;;37.95;29.70;;;;;;;8.61;100.00;99388.84;5090966;28;20562;-77
2022/10/01 00:55:55;;;;;;;44.65;31.35;;;;;;;8.61;100.00;99397.47;5090645;28;20024;-77
2022/10/01 00:58:22;;;;;;;41.28;32.03;;;;;;;8.60;100.00;99392.34;5090789;28;20020;-76
2022/10/01 01:00:49;;;;;;;40.65;30.15;;;;;;;8.58;100.00;99392.38;5090701;28;20016;-77
2022/10/01 01:03:15;;;;;;;51.40;34.70;;;;;;;8.48;100.00;99383.31;5090751;28;20076;-77
2022/10/01 01:05:40;;;;;;;37.97;30.88;;;;;;;8.48;100.00;99389.34;5090629;28;20131;-76
2022/10/01 01:08:07;;;;;;;43.22;30.48;;;;;;;8.44;100.00;99376.56;5090768;28;20016;-77
2022/10/01 01:10:53;;;;;;;40.35;32.97;;;;;;;8.49;100.00;99387.59;5090832;28;20044;-77
2022/10/01 01:13:36;;;;;;;41.25;32.50;;;;;;;8.40;100.00;99383.63;5008205;28;20038;-77
2022/10/01 01:16:08;;;;;;;43.40;32.65;;;;;;;8.45;100.00;99392.06;5008058;28;20037;-77
2022/10/01 01:18:54;;;;;;;43.03;34.75;;;;;;;8.42;100.00;99386.16;5008359;28;20040;-76
2022/10/01 01:21:25;;;;;;;43.90;33.10;;;;;;;8.32;100.00;99369.25;5009339;28;20029;-77
2022/10/01 01:24:17;;;;;;;43.90;33.08;;;;;;;8.31;100.00;99360.63;5011490;28;20029;-77
2022/10/01 01:26:55;;;;;;;52.42;37.03;;;;;;;8.29;100.00;99377.16;5011787;28;20034;-76
2022/10/01 01:29:29;;;;;;;42.45;34.17;;;;;;;8.27;100.00;99363.44;5011781;28;20113;-77
2022/10/01 01:32:01;;;;;;;46.25;33.55;;;;;;;8.26;100.00;99362.59;5011638;28;20377;-77
2022/10/01 01:34:30;;;;;;;50.38;37.38;;;;;;;8.21;100.00;99356.72;5011672;28;20168;-77
2022/10/01 01:37:11;;;;;;;46.50;34.05;;;;;;;8.21;100.00;99356.72;5011382;28;20034;-77
2022/10/01 01:39:39;;;;;;;47.38;35.22;;;;;;;8.24;100.00;99372.16;5011616;28;20481;-77
2022/10/01 01:42:10;;;;;;;41.83;33.33;;;;;;;8.16;100.00;99361.25;5011575;28;20022;-77
2022/10/01 01:44:39;;;;;;;48.88;35.40;;;;;;;8.11;100.00;99355.44;5011373;28;20034;-77
2022/10/01 01:47:09;;;;;;;46.95;34.83;;;;;;;8.12;100.00;99350.16;5011339;28;20065;-77
2022/10/01 01:49:35;;;;;;;46.65;33.65;;;;;;;8.17;100.00;99368.97;5023968;28;20463;-76
2022/10/01 01:52:12;;;;;;;44.38;35.85;;;;;;;8.09;100.00;99358.09;5093737;28;20027;-77
2022/10/01 01:54:38;;;;;;;50.45;37.28;;;;;;;8.14;100.00;99363.94;5093829;28;20028;-76
2022/10/01 01:57:05;;;;;;;45.95;35.65;;;;;;;8.11;100.00;99358.88;5093721;28;20416;-77
2022/10/01 01:59:32;;;;;;;41.70;31.85;;;;;;;8.09;100.00;99360.69;5093618;28;20658;-77
2022/10/01 02:01:58;;;;;;;41.92;32.00;;;;;;;8.04;100.00;99349.63;5093561;28;20030;-77
2022/10/01 02:04:48;;;;;;;45.33;34.92;;;;;;;7.99;100.00;99336.03;5093681;28;20024;-77
2022/10/01 02:07:25;;;;;;;43.80;33.70;;;;;;;8.06;100.00;99347.84;5093321;28;20055;-77
2022/10/01 02:10:26;;;;;;;42.15;33.65;;;;;;;8.05;100.00;99342.69;5093120;28;20535;-77
2022/10/01 02:13:09;;;;;;;40.60;33.35;;;;;;;8.02;100.00;99341.09;5010725;28;20062;-77
2022/10/01 02:15:55;;;;;;;45.85;34.83;;;;;;;8.00;100.00;99340.28;5011003;28;20038;-77
2022/10/01 02:18:47;;;;;;;45.78;34.38;;;;;;;7.95;100.00;99329.28;5010733;28;20461;-76
2022/10/01 02:21:38;;;;;;;43.83;34.40;;;;;;;7.89;100.00;99327.78;5010797;28;20069;-76
2022/10/01 02:24:18;;;;;;;44.20;33.00;;;;;;;7.85;100.00;99318.44;5010780;28;20034;-77
2022/10/01 02:26:46;;;;;;;47.15;36.15;;;;;;;7.89;100.00;99327.78;5010632;28;20113;-77
2022/10/01 02:29:15;;;;;;;44.08;33.42;;;;;;;7.88;100.00;99330.41;5010530;28;20057;-76
2022/10/01 02:31:41;;;;;;;60.53;35.00;;;;;;;7.83;100.00;99330.59;5010348;28;20065;-77
2022/10/01 02:34:07;;;;;;;48.42;36.33;;;;;;;7.77;100.00;99310.13;5010055;28;20105;-77
2022/10/01 02:36:36;;;;;;;47.53;35.40;;;;;;;7.80;100.00;99328.16;5010527;28;20045;-77
2022/10/01 02:39:04;;;;;;;44.42;34.45;;;;;;;7.83;100.00;99322.81;5010545;28;20151;-77
2022/10/01 02:41:35;;;;;;;49.58;37.35;;;;;;;7.86;100.00;99325.31;5010516;28;20030;-76
2022/10/01 02:44:15;;;;;;;51.08;37.55;;;;;;;7.87;100.00;99323.56;5010256;28;20060;-77
2022/10/01 02:46:58;;;;;;;49.53;37.90;;;;;;;7.92;100.00;99314.69;5010237;28;20109;-76
2022/10/01 02:49:24;;;;;;;48.25;37.42;;;;;;;7.96;100.00;99326.63;5041708;28;20060;-76
2022/10/01 02:52:19;;;;;;;51.13;37.78;;;;;;;7.95;100.00;99319.75;5092605;28;20021;-76
2022/10/01 02:54:57;;;;;;;52.55;37.40;;;;;;;7.92;100.00;99296.53;5092432;28;20026;-76
2022/10/01 02:57:23;;;;;;;49.42;36.80;;;;;;;8.05;100.00;99317.63;5092745;28;20039;-77
2022/10/01 03:00:00;;;;;;;52.55;37.15;;;;;;;8.04;100.00;99308.13;5092184;28;20358;-77
2022/10/01 03:02:27;;;;;;;47.08;37.05;;;;;;;8.13;100.00;99312.09;5092550;28;20039;-77
2022/10/01 03:04:55;;;;;;;50.47;38.75;;;;;;;8.14;100.00;99311.22;5092026;28;20110;-77
2022/10/01 03:07:21;;;;;;;53.00;37.95;;;;;;;8.16;100.00;99307.63;5092145;28;20081;-76
2022/10/01 03:09:48;;;;;;;48.95;36.45;;;;;;;8.14;100.00;99312.06;5092321;28;20532;-76
2022/10/01 03:12:15;;;;;;;66.97;42.45;;;;;;;8.13;100.00;99317.28;5092100;28;20020;-77
2022/10/01 03:14:43;;;;;;;73.40;41.95;;;;;;;8.06;100.00;99321.91;5092156;28;20515;-77
2022/10/01 03:17:09;;;;;;;52.95;38.78;;;;;;;7.97;100.00;99299.78;5092137;28;20054;-77
2022/10/01 03:19:34;;;;;;;49.63;37.92;;;;;;;8.06;100.00;99313.28;5092227;28;20111;-77
2022/10/01 03:22:00;;;;;;;53.47;39.95;;;;;;;8.00;100.00;99307.41;5091910;28;20020;-76
2022/10/01 03:24:25;;;;;;;47.75;37.20;;;;;;;8.02;100.00;99307.38;5092055;28;20024;-76
2022/10/01 03:26:50;;;;;;;46.60;37.00;;;;;;;8.13;100.00;99314.69;5091728;28;20047;-76
2022/10/01 03:29:16;;;;;;;72.38;43.25;;;;;;;8.11;100.00;99311.34;5091985;28;20020;-77
2022/10/01 03:31:41;;;;;;;65.53;42.78;;;;;;;8.05;100.00;99314.16;5091799;28;20027;-76
2022/10/01 03:34:06;;;;;;;46.30;35.97;;;;;;;7.97;100.00;99304.13;5091931;28;20023;-77
2022/10/01 03:36:32;;;;;;;50.30;37.97;;;;;;;7.91;100.00;99291.41;5091976;28;20099;-76
2022/10/01 03:38:57;;;;;;;53.63;37.45;;;;;;;7.95;100.00;99303.34;5091558;28;20024;-76
2022/10/01 03:41:23;;;;;;;46.75;36.95;;;;;;;7.92;100.00;99298.28;5091766;28;20079;-77
2022/10/01 03:43:48;;;;;;;47.95;38.25;;;;;;;7.91;100.00;99302.63;5091570;28;20055;-77
2022/10/01 03:46:14;;;;;;;47.38;36.60;;;;;;;7.88;100.00;99288.94;5091013;28;20438;-76
2022/10/01 03:48:39;;;;;;;47.35;38.03;;;;;;;7.86;100.00;99289.00;5091399;28;20020;-77
2022/10/01 03:51:05;;;;;;;48.00;38.90;;;;;;;7.84;100.00;99290.00;5091870;28;20028;-77
2022/10/01 03:53:30;;;;;;;45.90;37.13;;;;;;;7.83;100.00;99285.69;5091492;28;20024;-77
2022/10/01 03:55:57;;;;;;;44.47;35.28;;;;;;;7.82;100.00;99299.56;5091187;28;20026;-77
2022/10/01 03:58:23;;;;;;;41.72;34.42;;;;;;;7.80;100.00;99299.66;5091415;28;20348;-77
2022/10/01 04:00:49;;;;;;;45.10;35.15;;;;;;;7.80;100.00;99298.81;5091355;28;20023;-77
2022/10/01 04:03:16;;;;;;;43.35;34.78;;;;;;;7.79;100.00;99299.69;5091575;28;20432;-76
2022/10/01 04:05:42;;;;;;;42.72;33.70;;;;;;;7.71;100.00;99290.50;5091214;28;20048;-77
2022/10/01 04:08:08;;;;;;;43.67;34.85;;;;;;;7.78;100.00;99298.00;5091115;28;20027;-77
2022/10/01 04:10:33;;;;;;;51.05;36.13;;;;;;;7.63;100.00;99279.59;5091263;28;20027;-77
2022/10/01 04:12:59;;;;;;;41.05;33.80;;;;;;;7.63;100.00;99274.41;5091117;28;20470;-77
2022/10/01 04:15:24;;;;;;;46.30;36.30;;;;;;;7.63;100.00;99287.38;5091243;28;20281;-76
2022/10/01 04:17:50;;;;;;;40.88;33.88;;;;;;;7.62;100.00;99277.03;5090991;28;20020;-76
2022/10/01 04:20:15;;;;;;;43.70;35.03;;;;;;;7.61;100.00;99280.53;5091209;28;20036;-77
2022/10/01 04:22:41;;;;;;;40.22;32.50;;;;;;;7.51;100.00;99272.31;5090791;28;20016;-77
2022/10/01 04:25:09;;;;;;;42.28;33.88;;;;;;;7.56;100.00;99275.53;5090966;28;20028;-77
2022/10/01 04:27:35;;;;;;;41.45;33.58;;;;;;;7.44;100.00;99273.44;5091252;28;20063;-77
2022/10/01 04:30:01;;;;;;;69.68;35.85;;;;;;;7.46;100.00;99277.69;5090939;28;20024;-77
2022/10/01 04:32:26;;;;;;;40.33;32.35;;;;;;;7.44;100.00;99289.84;5091177;28;20662;-77
2022/10/01 04:34:51;;;;;;;39.13;31.90;;;;;;;7.38;100.00;99276.28;5090922;28;20035;-77
2022/10/01 04:37:17;;;;;;;41.50;31.58;;;;;;;7.35;100.00;99279.00;5091069;28;20031;-76
2022/10/01 04:39:43;;;;;;;37.58;31.02;;;;;;;7.32;100.00;99279.09;5090685;28;20615;-76
2022/10/01 04:42:08;;;;;;;36.47;30.13;;;;;;;7.26;100.00;99290.56;5090934;28;20032;-76
2022/10/01 04:44:34;;;;;;;38.97;32.65;;;;;;;7.17;100.00;99281.41;5090928;28;20477;-76
2022/10/01 04:46:59;;;;;;;39.08;30.40;;;;;;;7.18;100.00;99287.44;5090769;28;20024;-76
2022/10/01 04:49:25;;;;;;;38.30;31.42;;;;;;;7.18;100.00;99292.59;5090983;28;20362;-77
2022/10/01 04:51:50;;;;;;;36.42;30.35;;;;;;;7.11;100.00;99288.56;5090672;28;20099;-77
2022/10/01 04:54:15;;;;;;;38.08;29.88;;;;;;;7.05;100.00;99279.28;5090907;28;20344;-76
2022/10/01 04:56:41;;;;;;;37.25;29.63;;;;;;;7.09;100.00;99292.97;5092427;28;20016;-76
2022/10/01 04:59:06;;;;;;;34.42;29.38;;;;;;;7.09;100.00;99296.38;5095030;28;20143;-77
2022/10/01 05:01:31;;;;;;;37.78;30.55;;;;;;;7.06;100.00;99285.31;5094917;28;20020;-77
2022/10/01 05:03:57;;;;;;;31.08;27.27;;;;;;;7.02;100.00;99281.97;5094654;28;20028;-76
2022/10/01 05:06:23;;;;;;;34.55;27.90;;;;;;;7.00;100.00;99276.88;5094558;28;20036;-76
2022/10/01 05:08:49;;;;;;;34.67;28.17;;;;;;;7.09;100.00;99277.41;5094333;28;20024;-76
2022/10/01 05:11:14;;;;;;;38.38;30.23;;;;;;;7.10;100.00;99279.09;5094581;28;20421;-77
2022/10/01 05:13:40;;;;;;;33.33;28.33;;;;;;;7.17;100.00;99289.19;5094494;28;20016;-76
2022/10/01 05:16:06;;;;;;;40.17;31.55;;;;;;;7.18;100.00;99271.88;5094528;28;20585;-76
2022/10/01 05:18:31;;;;;;;50.35;39.83;;;;;;;7.13;100.00;99272.06;5094520;28;20062;-77
2022/10/01 05:20:57;;;;;;;38.65;33.10;;;;;;;7.18;100.00;99269.28;5094249;28;20032;-76
2022/10/01 05:23:22;;;;;;;40.15;32.40;;;;;;;7.27;100.00;99279.28;5094329;28;20016;-76
2022/10/01 05:25:48;;;;;;;33.10;27.65;;;;;;;7.29;100.00;99276.63;5094010;28;20020;-77
2022/10/01 05:28:14;;;;;;;33.65;27.77;;;;;;;7.29;100.00;99274.91;5094322;28;20020;-76
2022/10/01 05:30:40;;;;;;;35.75;28.52;;;;;;;7.34;100.00;99267.78;5094118;28;20051;-76
2022/10/01 05:33:05;;;;;;;34.17;28.23;;;;;;;7.49;100.00;99280.13;5094154;28;20043;-76
2022/10/01 05:35:31;;;;;;;33.10;28.17;;;;;;;7.58;100.00;99276.31;5094097;28;20024;-77
2022/10/01 05:37:59;;;;;;;31.42;26.83;;;;;;;7.62;100.00;99249.38;5094057;28;20039;-77
2022/10/01 05:40:27;;;;;;;32.63;27.33;;;;;;;7.66;100.00;99256.13;5094340;28;20099;-76
2022/10/01 05:42:54;;;;;;;30.20;26.45;;;;;;;7.72;100.00;99268.00;5093866;28;20016;-77
2022/10/01 05:45:21;;;;;;;41.45;29.67;;;;;;;7.72;100.00;99257.63;5094086;28;20452;-76
2022/10/01 05:47:48;;;;;;;45.88;29.65;;;;;;;7.75;100.00;99266.13;5093729;28;20030;-76
2022/10/01 05:50:14;;;;;;;29.40;24.20;;;;;;;7.75;100.00;99265.25;5093804;28;20051;-77
2022/10/01 05:52:47;;;;;;;28.50;23.80;;;;;;;7.89;100.00;99259.53;5093537;28;20462;-76
2022/10/01 05:55:12;;;;;;;28.55;24.38;;;;;;;7.97;100.00;99260.06;5093940;28;20354;-77
2022/10/01 05:57:37;;;;;;;29.15;24.85;;;;;;;7.99;100.00;99274.63;5094113;28;20024;-77
2022/10/01 06:00:04;;;;;;;34.03;24.50;;;;;;;7.92;100.00;99259.38;5094034;28;20340;-76
2022/10/01 06:02:29;;;;;;;30.55;23.58;;;;;;;7.86;100.00;99260.47;5093938;28;20024;-76
2022/10/01 06:04:54;;;;;;;28.55;24.33;;;;;;;7.99;100.00;99277.22;5093565;28;20383;-77
2022/10/01 06:07:20;;;;;;;29.33;25.08;;;;;;;8.10;100.00;99271.59;5092992;28;20452;-76
2022/10/01 06:09:45;;;;;;;27.05;24.08;;;;;;;8.24;100.00;99268.38;5092888;28;20028;-77
2022/10/01 06:12:10;;;;;;;31.80;25.92;;;;;;;8.46;100.00;99271.75;5093754;28;20371;-77
2022/10/01 06:14:36;;;;;;;28.70;25.27;;;;;;;8.73;100.00;99268.88;5093572;28;20104;-77
2022/10/01 06:17:01;;;;;;;35.28;27.23;;;;;;;8.78;100.00;99269.50;5093433;28;20069;-77
2022/10/01 06:19:27;;;;;;;32.40;25.60;;;;;;;8.76;100.00;99271.31;5093427;28;20095;-77
2022/10/01 06:21:52;;;;;;;29.10;24.67;;;;;;;8.90;100.00;99260.31;5093140;28;20032;-77
2022/10/01 06:24:17;;;;;;;26.60;23.80;;;;;;;9.33;100.00;99250.50;5093591;28;20087;-77
2022/10/01 06:26:43;;;;;;;29.63;23.23;;;;;;;9.90;100.00;99254.63;5093236;28;20044;-77
2022/10/01 06:29:09;;;;;;;27.88;23.70;;;;;;;10.25;100.00;99257.22;5093418;28;20668;-77
2022/10/01 06:31:34;;;;;;;26.25;23.13;;;;;;;10.53;100.00;99250.56;5093324;28;20028;-77
2022/10/01 06:34:00;;;;;;;29.25;24.63;;;;;;;10.60;100.00;99263.19;5092967;28;20103;-77
2022/10/01 06:36:25;;;;;;;25.70;22.05;;;;;;;10.90;100.00;99246.81;5093053;28;20024;-77
2022/10/01 06:38:50;;;;;;;26.63;23.33;;;;;;;11.22;100.00;99243.31;5093024;28;20043;-77
2022/10/01 06:41:17;;;;;;;26.38;22.65;;;;;;;11.88;100.00;99238.72;5084380;28;20397;-77
2022/10/01 06:43:43;;;;;;;23.95;21.38;;;;;;;12.14;100.00;99231.97;5084172;28;20099;-77
2022/10/01 06:46:08;;;;;;;24.73;21.25;;;;;;;12.54;100.00;99221.72;5084366;28;20127;-77
2022/10/01 06:48:35;;;;;;;26.33;21.42;;;;;;;13.42;98.85;99233.59;5086909;28;20467;-77
2022/10/01 06:51:01;;;;;;;22.23;19.48;;;;;;;14.05;96.30;99221.59;5092569;28;20028;-77
2022/10/01 06:53:27;;;;;;;21.30;19.00;;;;;;;14.50;94.93;99224.66;5087801;28;20073;-77
2022/10/01 06:55:53;;;;;;;21.83;18.17;;;;;;;15.22;91.61;99223.84;5085327;28;20050;-77
2022/10/01 06:58:20;;;;;;;21.58;18.67;;;;;;;16.01;87.49;99220.66;5092838;28;20020;-77
2022/10/01 07:00:46;;;;;;;20.75;16.27;;;;;;;16.15;86.50;99228.34;5070597;28;20037;-77
2022/10/01 07:03:15;;;;;;;20.30;16.90;;;;;;;16.04;84.04;99236.22;5072382;28;20024;-77
2022/10/01 07:05:40;;;;;;;20.38;16.45;;;;;;;15.99;84.80;99207.66;5071900;28;20478;-77
2022/10/01 07:08:06;;;;;;;17.30;15.55;;;;;;;15.99;83.07;99233.94;5072290;28;20020;-77
2022/10/01 07:10:33;;;;;;;17.85;15.75;;;;;;;15.98;82.94;99223.56;5079319;28;20429;-77
2022/10/01 07:13:10;;;;;;;19.80;16.13;;;;;;;15.92;80.47;99222.22;5076146;28;20096;-77
2022/10/01 07:15:36;;;;;;;16.98;15.18;;;;;;;15.54;81.87;99225.03;5072413;28;20098;-77
2022/10/01 07:18:01;;;;;;;16.75;15.00;;;;;;;15.82;82.65;99226.50;5071916;28;20020;-77
2022/10/01 07:20:27;;;;;;;14.63;13.13;;;;;;;16.04;82.28;99223.91;5071863;28;20024;-77
2022/10/01 07:22:57;;;;;;;15.75;14.15;;;;;;;16.13;81.24;99214.47;5072092;28;20070;-77
2022/10/01 07:25:24;;;;;;;16.23;13.93;;;;;;;16.29;81.23;99208.91;5072272;28;20111;-77
2022/10/01 07:27:53;;;;;;;16.45;14.70;;;;;;;16.13;78.91;99212.69;5071652;28;20016;-77
2022/10/01 07:30:18;;;;;;;15.05;13.15;;;;;;;16.10;81.01;99209.50;5071826;28;20017;-77
2022/10/01 07:32:43;;;;;;;16.35;14.65;;;;;;;16.15;80.61;99208.16;5071630;28;20024;-77
2022/10/01 07:35:09;;;;;;;18.30;14.63;;;;;;;15.88;80.52;99200.59;5071716;28;20059;-78
2022/10/01 07:37:35;;;;;;;15.65;13.35;;;;;;;15.87;81.40;99190.22;5071895;28;20029;-77
2022/10/01 07:40:01;;;;;;;15.40;13.38;;;;;;;15.71;81.25;99199.22;5071560;28;20032;-77
2022/10/01 07:42:26;;;;;;;15.02;13.50;;;;;;;15.53;82.00;99182.22;5071635;28;20356;-77
2022/10/01 07:44:52;;;;;;;15.55;13.05;;;;;;;15.84;82.51;99193.88;5071377;28;20028;-77
2022/10/01 07:47:17;;;;;;;15.48;13.77;;;;;;;15.92;81.08;99193.31;5071163;28;20032;-78
2022/10/01 07:49:43;;;;;;;14.68;13.18;;;;;;;15.86;79.68;99186.75;5071357;28;20024;-78
2022/10/01 07:52:08;;;;;;;15.65;12.30;;;;;;;15.95;80.63;99188.66;5071467;28;20021;-78
2022/10/01 07:54:33;;;;;;;14.55;13.05;;;;;;;15.98;80.80;99184.16;5071664;28;20345;-78
2022/10/01 07:56:59;;;;;;;13.48;12.07;;;;;;;15.96;80.51;99182.47;5071489;28;20479;-78
2022/10/01 07:59:26;;;;;;;14.93;11.43;;;;;;;15.77;78.71;99190.06;5071357;28;20040;-78
2022/10/01 08:01:52;;;;;;;13.55;10.75;;;;;;;15.92;80.38;99190.69;5070997;28;20031;-78
2022/10/01 08:07:03;;;;;;;15.25;12.50;;;;;;;15.87;79.62;99182.31;5070889;28;20067;-78
2022/10/01 08:09:29;;;;;;;26.98;20.20;;;;;;;15.95;80.27;99187.84;5073413;28;20016;-78
2022/10/01 08:11:54;;;;;;;16.65;14.95;;;;;;;15.47;80.15;99180.88;5070856;28;20063;-78
2022/10/01 08:14:20;;;;;;;12.88;11.57;;;;;;;15.32;81.59;99168.88;5073232;28;20065;-78
2022/10/01 08:16:46;;;;;;;15.00;12.65;;;;;;;15.42;82.24;99175.16;5071118;28;20363;-78
2022/10/01 08:19:13;;;;;;;13.27;11.88;;;;;;;15.57;81.88;99174.94;5071233;28;20024;-78
2022/10/01 08:21:39;;;;;;;13.70;12.30;;;;;;;15.46;79.85;99166.09;5071094;28;20020;-78
2022/10/01 08:24:04;;;;;;;15.52;12.38;;;;;;;15.43;80.26;99153.19;5070966;28;20148;-78
2022/10/01 08:26:30;;;;;;;15.02;12.55;;;;;;;15.58;80.55;99163.47;5071225;28;20036;-78
2022/10/01 08:28:58;;;;;;;15.65;13.25;;;;;;;15.46;79.47;99147.72;5070716;28;20051;-78
2022/10/01 08:31:24;;;;;;;12.13;10.82;;;;;;;15.49;80.47;99141.41;5070686;28;20021;-78
2022/10/01 08:33:49;;;;;;;15.43;11.50;;;;;;;15.54;81.36;99143.66;5071065;28;20045;-78
2022/10/01 08:36:15;;;;;;;23.48;14.27;;;;;;;15.48;80.28;99144.97;5071205;28;20031;-78
2022/10/01 08:38:46;;;;;;;14.48;12.90;;;;;;;15.32;80.64;99139.19;5070846;28;20516;-79
2022/10/01 08:41:43;;;;;;;14.65;11.55;;;;;;;15.31;82.08;99140.16;5070706;28;20024;-79
2022/10/01 08:44:21;;;;;;;17.75;12.00;;;;;;;15.41;81.90;99138.50;5071105;28;20052;-78
2022/10/01 08:46:49;;;;;;;13.80;11.27;;;;;;;15.49;81.78;99130.91;5070813;28;20047;-78
2022/10/01 08:49:41;;;;;;;14.65;11.73;;;;;;;15.43;81.55;99123.50;5070723;28;20025;-78
2022/10/01 08:52:21;;;;;;;14.27;12.27;;;;;;;15.56;82.25;99137.38;5071033;28;20056;-78
2022/10/01 08:54:56;;;;;;;12.55;11.25;;;;;;;15.58;81.32;99129.38;5070470;28;20119;-79
2022/10/01 08:57:26;;;;;;;13.45;11.98;;;;;;;15.52;81.21;99117.56;5070746;28;20112;-79
2022/10/01 08:59:58;;;;;;;13.40;11.75;;;;;;;15.52;80.97;99119.34;5070464;28;20029;-79
2022/10/01 09:02:36;;;;;;;14.68;13.07;;;;;;;15.52;81.13;99114.94;5070616;28;20024;-79
2022/10/01 09:05:19;;;;;;;15.13;12.68;;;;;;;15.45;81.47;99114.53;5077791;28;20064;-78
2022/10/01 09:07:47;;;;;;;14.57;12.77;;;;;;;15.38;82.43;99113.34;5084923;28;20020;-79
2022/10/01 09:10:24;;;;;;;17.17;13.43;;;;;;;15.27;82.60;99117.72;5075796;28;20031;-78
2022/10/01 09:13:12;;;;;;;17.13;14.25;;;;;;;15.21;83.20;99122.47;5070889;28;20082;-79
2022/10/01 09:16:06;;;;;;;17.05;14.43;;;;;;;15.15;84.25;99114.22;5077988;28;20035;-79
2022/10/01 09:19:04;;;;;;;17.90;14.18;;;;;;;14.90;84.68;99084.53;5009296;28;20113;-79
2022/10/01 09:22:01;;;;;;;17.90;15.38;;;;;;;15.15;85.62;99101.91;4999098;28;20026;-78
2022/10/01 09:24:29;;;;;;;17.88;14.85;;;;;;;15.26;85.75;99105.56;4989313;28;20109;-79
2022/10/01 09:26:54;;;;;;;17.17;14.43;;;;;;;15.27;86.16;99078.34;4989112;28;20027;-79
2022/10/01 09:29:29;;;;;;;19.00;15.38;;;;;;;15.20;85.77;99080.59;4989179;28;20041;-79
2022/10/01 09:31:58;;;;;;;16.00;13.98;;;;;;;15.33;86.19;99086.59;4989030;28;20030;-79
2022/10/01 09:34:36;;;;;;;16.83;14.98;;;;;;;15.37;86.27;99085.41;4989527;28;20072;-79
2022/10/01 09:37:23;;;;;;;21.13;18.88;;;;;;;15.42;86.15;99093.78;4989274;28;20046;-79
2022/10/01 09:40:11;;;;;;;21.40;16.58;;;;;;;15.23;86.94;99067.25;5001286;28;20047;-79
2022/10/01 09:42:37;;;;;;;16.52;14.13;;;;;;;15.29;87.01;99066.78;5009155;28;20034;-79
2022/10/01 09:45:04;;;;;;;17.85;15.38;;;;;;;15.37;87.55;99076.69;5012433;28;20462;-79
2022/10/01 09:47:32;;;;;;;16.90;15.15;;;;;;;15.31;87.92;99061.44;5012632;28;20113;-79
2022/10/01 09:50:02;;;;;;;19.45;15.02;;;;;;;15.36;88.00;99078.50;5012338;28;20033;-79
2022/10/01 09:52:33;;;;;;;16.98;14.65;;;;;;;15.16;88.58;99061.63;4996087;28;20358;-80
2022/10/01 09:55:14;;;;;;;16.92;14.93;;;;;;;15.03;89.06;99060.88;5026738;28;20301;-80
2022/10/01 09:57:46;;;;;;;19.98;16.27;;;;;;;15.01;89.00;99060.16;5074612;28;20028;-80
2022/10/01 10:00:21;;;;;;;15.75;13.75;;;;;;;15.16;88.74;99058.16;5074447;28;20021;-80
2022/10/01 10:02:48;;;;;;;19.10;16.00;;;;;;;15.14;89.01;99060.91;5074052;28;20031;-80
2022/10/01 10:05:15;;;;;;;19.58;14.77;;;;;;;15.07;89.17;99058.84;5074445;28;20094;-80
2022/10/01 10:07:54;;;;;;;16.95;14.55;;;;;;;14.95;89.27;99050.09;5074378;28;20020;-80
2022/10/01 10:10:24;;;;;;;22.05;14.82;;;;;;;14.97;89.60;99042.97;5074476;28;20032;-80
2022/10/01 10:13:18;;;;;;;17.90;14.40;;;;;;;15.07;89.66;99051.81;5077280;28;20077;-80
2022/10/01 10:15:59;;;;;;;19.58;15.93;;;;;;;15.06;90.57;99049.31;5012053;28;20049;-80
2022/10/01 10:18:35;;;;;;;;;;;;;;;15.19;90.57;99050.91;5012488;28;20107;-80
2022/10/01 10:21:06;;;;;;;17.75;15.32;;;;;;;15.03;90.85;99032.03;5011681;28;19948;-79
2022/10/01 10:23:33;;;;;;;17.27;15.20;;;;;;;15.10;90.78;99043.72;5011860;28;20041;-79
2022/10/01 10:26:04;;;;;;;19.80;14.77;;;;;;;15.14;91.12;99039.09;5011596;28;20026;-78
2022/10/01 10:28:46;;;;;;;17.13;14.98;;;;;;;15.21;90.37;99037.66;5011697;28;20096;-78
2022/10/01 10:31:19;;;;;;;16.27;13.75;;;;;;;15.31;90.19;99025.53;4995342;28;20342;-78
2022/10/01 10:34:00;;;;;;;17.33;13.10;;;;;;;15.32;89.68;99026.38;5011777;28;20605;-78
2022/10/01 10:36:31;;;;;;;14.50;12.82;;;;;;;15.43;90.30;99015.91;5011778;28;20034;-78
2022/10/01 10:38:57;;;;;;;14.00;11.13;;;;;;;15.50;89.24;99017.06;5011404;28;20076;-79
2022/10/01 10:41:25;;;;;;;14.63;11.77;;;;;;;15.61;89.23;99006.59;5011678;28;20030;-78
2022/10/01 10:44:03;;;;;;;12.23;10.88;;;;;;;15.73;89.14;99007.47;5011257;28;20034;-79
2022/10/01 10:46:33;;;;;;;12.77;10.35;;;;;;;15.73;89.33;98991.72;5011409;28;20038;-79
2022/10/01 10:49:07;;;;;;;11.75;10.45;;;;;;;15.81;88.35;98978.81;5011131;28;20057;-79
2022/10/01 10:51:53;;;;;;;15.25;10.63;;;;;;;15.79;87.85;98979.88;5013462;28;20465;-79
2022/10/01 10:54:22;;;;;;;10.85;9.75;;;;;;;15.66;87.23;98970.34;5093287;28;20035;-79
2022/10/01 10:56:52;;;;;;;11.27;9.63;;;;;;;15.74;87.35;98972.38;5093693;28;20031;-79
2022/10/01 10:59:17;;;;;;;12.98;9.77;;;;;;;15.79;87.18;98974.63;5093817;28;20075;-79
2022/10/01 11:01:46;;;;;;;10.63;9.10;;;;;;;15.70;87.61;98961.28;5093824;28;20020;-79
2022/10/01 11:04:23;;;;;;;9.90;8.25;;;;;;;15.73;87.48;98956.75;5093524;28;20023;-79
2022/10/01 11:06:58;;;;;;;9.52;7.50;;;;;;;15.71;87.78;98949.81;5093057;28;20487;-79
2022/10/01 11:09:32;;;;;;;9.45;7.82;;;;;;;15.80;88.22;98961.41;5093300;28;20020;-79
2022/10/01 11:12:19;;;;;;;9.35;7.88;;;;;;;15.78;88.75;98949.34;5093244;28;20366;-79
2022/10/01 11:15:10;;;;;;;10.18;8.57;;;;;;;15.78;88.58;98958.06;5073963;28;20043;-79
2022/10/01 11:17:35;;;;;;;8.70;7.78;;;;;;;15.76;88.53;98951.25;5072969;28;20089;-79
2022/10/01 11:20:07;;;;;;;11.50;7.68;;;;;;;15.76;88.70;98948.63;5072954;28;20024;-79
2022/10/01 11:22:41;;;;;;;18.40;12.93;;;;;;;15.68;88.04;98939.56;5072774;28;20507;-79
2022/10/01 11:25:13;;;;;;;13.00;10.00;;;;;;;15.67;87.10;98943.16;5072769;28;20020;-79
2022/10/01 11:27:39;;;;;;;9.82;7.88;;;;;;;15.74;87.61;98940.88;5072753;28;20035;-79
2022/10/01 11:30:08;;;;;;;9.45;7.60;;;;;;;15.79;87.86;98935.25;5072503;28;20016;-79
2022/10/01 11:32:46;;;;;;;10.80;7.97;;;;;;;15.80;87.75;98924.66;5072959;28;20017;-79